Time;durP1;ratioP1;P1;durP2;ratioP2;P2;SDS_P1;SDS_P2;PMS_P1;PMS_P2;Temp;Humidity;BMP_temperature;BMP_pressure;BME280_temperature;BME280_humidity;BME280_pressure;Samples;Min_cycle;Max_cycle;Signal;HPM_P1;HPM_P2
2022/09/03 00:01:53;;;;;;;2.58;0.85;;;15.90;99.90;;;;;;7395318;19;20040;-78
2022/09/03 00:04:35;;;;;;;2.47;1.10;;;15.90;99.90;;;;;;7400999;19;20374;-78
2022/09/03 00:07:07;;;;;;;3.35;1.08;;;16.00;99.90;;;;;;7396625;19;20546;-78
2022/09/03 00:09:45;;;;;;;1.38;1.00;;;15.80;99.90;;;;;;7399317;19;20018;-78
2022/09/03 00:12:27;;;;;;;2.67;1.08;;;15.80;99.90;;;;;;7399496;19;20491;-78
2022/09/03 00:15:10;;;;;;;2.40;0.90;;;15.80;99.90;;;;;;7397109;19;20039;-78
2022/09/03 00:17:41;;;;;;;2.28;0.73;;;15.80;99.90;;;;;;7399446;19;20369;-77
2022/09/03 00:20:14;;;;;;;3.60;1.00;;;15.80;99.90;;;;;;7398230;19;20025;-78
2022/09/03 00:22:44;;;;;;;2.00;0.90;;;15.70;99.90;;;;;;7398441;19;20315;-78
2022/09/03 00:25:16;;;;;;;2.92;0.95;;;15.70;99.90;;;;;;7398695;19;20014;-79
2022/09/03 00:27:44;;;;;;;3.67;1.20;;;15.60;99.90;;;;;;7397413;19;20023;-78
2022/09/03 00:30:12;;;;;;;3.30;0.90;;;15.60;99.90;;;;;;7395363;19;20011;-78
2022/09/03 00:33:11;;;;;;;2.22;1.00;;;15.50;99.90;;;;;;7399194;19;20014;-78
2022/09/03 00:35:41;;;;;;;4.30;1.15;;;15.50;99.90;;;;;;7397746;19;20092;-78
2022/09/03 00:38:08;;;;;;;3.10;1.00;;;15.60;99.90;;;;;;7396935;19;20463;-78
2022/09/03 00:41:14;;;;;;;4.22;0.90;;;15.50;99.90;;;;;;7394236;19;20082;-78
2022/09/03 00:44:01;;;;;;;2.00;0.95;;;15.50;99.90;;;;;;7398235;19;20490;-78
2022/09/03 00:46:40;;;;;;;1.63;0.90;;;15.50;99.90;;;;;;7400084;19;20015;-78
2022/09/03 00:49:24;;;;;;;3.35;0.90;;;15.40;99.90;;;;;;7396762;19;20490;-78
2022/09/03 00:52:02;;;;;;;1.77;1.05;;;15.40;99.90;;;;;;7397326;19;20014;-78
2022/09/03 00:55:01;;;;;;;3.08;0.90;;;15.40;99.90;;;;;;7392902;19;20010;-78
2022/09/03 00:57:36;;;;;;;1.70;0.90;;;15.40;99.90;;;;;;7394675;19;20475;-78
2022/09/03 01:00:10;;;;;;;2.17;0.70;;;15.30;99.90;;;;;;7394911;19;20029;-78
2022/09/03 01:03:06;;;;;;;3.03;1.00;;;15.40;99.90;;;;;;7398544;19;20029;-78
2022/09/03 01:05:42;;;;;;;2.75;0.90;;;15.40;99.90;;;;;;7397166;19;20019;-78
2022/09/03 01:08:31;;;;;;;2.67;1.05;;;15.40;99.90;;;;;;7396011;19;20018;-78
2022/09/03 01:11:25;;;;;;;1.35;0.90;;;15.30;99.90;;;;;;7393422;19;20491;-78
2022/09/03 01:14:28;;;;;;;3.40;0.90;;;15.20;99.90;;;;;;7394375;19;20027;-78
2022/09/03 01:17:03;;;;;;;1.53;0.90;;;15.20;99.90;;;;;;7398456;19;20015;-78
2022/09/03 01:20:06;;;;;;;2.67;1.20;;;15.20;99.90;;;;;;7395079;19;20631;-78
2022/09/03 01:22:58;;;;;;;3.80;0.90;;;15.20;99.90;;;;;;7398216;19;20014;-78
2022/09/03 01:25:37;;;;;;;3.13;1.15;;;15.10;99.90;;;;;;7395717;19;20531;-78
2022/09/03 01:28:45;;;;;;;1.35;0.88;;;15.10;99.90;;;;;;7394489;19;20034;-78
2022/09/03 01:31:18;;;;;;;2.30;0.98;;;15.10;99.90;;;;;;7394792;19;20494;-78
2022/09/03 01:33:47;;;;;;;3.40;1.00;;;15.10;99.90;;;;;;7394268;19;20015;-78
2022/09/03 01:36:37;;;;;;;4.40;1.20;;;15.00;99.90;;;;;;7395254;19;20015;-78
2022/09/03 01:39:06;;;;;;;2.28;1.00;;;15.00;99.90;;;;;;7393313;19;20771;-78
2022/09/03 01:42:23;;;;;;;4.57;1.23;;;15.00;99.90;;;;;;7394482;19;20042;-78
2022/09/03 01:45:12;;;;;;;2.42;1.17;;;14.90;99.90;;;;;;7396094;19;20362;-78
2022/09/03 01:47:53;;;;;;;2.78;1.30;;;14.90;99.90;;;;;;7396708;19;20018;-78
2022/09/03 01:50:41;;;;;;;2.90;1.10;;;14.90;99.90;;;;;;7394372;19;20046;-78
2022/09/03 01:53:44;;;;;;;3.67;1.48;;;14.90;99.90;;;;;;7395255;19;20023;-78
2022/09/03 01:56:43;;;;;;;3.38;1.10;;;14.80;99.90;;;;;;7393933;19;20030;-78
2022/09/03 01:59:21;;;;;;;4.97;1.40;;;14.80;99.90;;;;;;7397824;19;20038;-78
2022/09/03 02:02:00;;;;;;;2.95;1.20;;;14.70;99.90;;;;;;7395307;19;20364;-78
2022/09/03 02:04:27;;;;;;;2.28;1.13;;;14.70;99.90;;;;;;7394836;19;20018;-78
2022/09/03 02:06:56;;;;;;;1.88;1.20;;;14.70;99.90;;;;;;7395205;19;20029;-78
2022/09/03 02:09:22;;;;;;;2.30;1.17;;;14.70;99.90;;;;;;7392516;19;20018;-77
2022/09/03 02:12:13;;;;;;;2.75;1.27;;;14.70;99.90;;;;;;7394881;19;20011;-78
2022/09/03 02:14:39;;;;;;;2.53;1.30;;;14.60;99.90;;;;;;7391880;19;20022;-78
2022/09/03 02:17:06;;;;;;;4.03;1.20;;;14.60;99.90;;;;;;7391116;19;20016;-78
2022/09/03 02:19:33;;;;;;;3.70;1.05;;;14.50;99.90;;;;;;7394617;19;20099;-78
2022/09/03 02:21:59;;;;;;;2.00;1.15;;;14.50;99.90;;;;;;7394863;19;20135;-78
2022/09/03 02:24:26;;;;;;;3.53;1.20;;;14.50;99.90;;;;;;7394967;19;20509;-78
2022/09/03 02:26:53;;;;;;;7.30;1.25;;;14.50;99.90;;;;;;7401895;19;20328;-78
2022/09/03 02:29:20;;;;;;;3.08;1.33;;;14.50;99.90;;;;;;7402531;19;20035;-78
2022/09/03 02:31:46;;;;;;;2.00;1.10;;;14.50;99.90;;;;;;7400985;19;20066;-78
2022/09/03 02:34:12;;;;;;;2.78;1.35;;;14.50;99.90;;;;;;7400280;19;20015;-78
2022/09/03 02:36:47;;;;;;;2.00;1.38;;;14.50;99.90;;;;;;7400468;19;20320;-78
2022/09/03 02:39:14;;;;;;;2.60;1.10;;;14.50;99.90;;;;;;7403411;19;20086;-78
2022/09/03 02:41:41;;;;;;;4.43;1.58;;;14.50;99.90;;;;;;7403180;19;20011;-78
2022/09/03 02:44:30;;;;;;;2.05;1.05;;;14.40;99.90;;;;;;7400145;19;20029;-78
2022/09/03 02:46:57;;;;;;;2.22;1.20;;;14.40;99.90;;;;;;7400142;19;20066;-78
2022/09/03 02:49:24;;;;;;;3.90;1.40;;;14.40;99.90;;;;;;7402900;19;20010;-78
2022/09/03 02:51:49;;;;;;;2.55;1.27;;;14.40;99.90;;;;;;7400989;19;20026;-78
2022/09/03 02:54:16;;;;;;;3.78;1.40;;;14.40;99.90;;;;;;7398175;19;20039;-78
2022/09/03 02:56:42;;;;;;;1.80;1.10;;;14.40;99.90;;;;;;7394751;19;20019;-78
2022/09/03 02:59:08;;;;;;;4.50;1.20;;;14.30;99.90;;;;;;7401428;19;20498;-78
2022/09/03 03:01:35;;;;;;;1.92;1.30;;;14.30;99.90;;;;;;7400796;19;20014;-78
2022/09/03 03:04:01;;;;;;;2.03;1.50;;;14.30;99.90;;;;;;7399180;19;20010;-78
2022/09/03 03:06:27;;;;;;;2.20;1.25;;;14.30;99.90;;;;;;7400178;19;20014;-78
2022/09/03 03:08:54;;;;;;;2.80;1.30;;;14.30;99.90;;;;;;7401826;19;20070;-78
2022/09/03 03:11:21;;;;;;;2.55;1.30;;;14.20;99.90;;;;;;7398067;19;20017;-78
2022/09/03 03:13:48;;;;;;;2.60;1.40;;;14.20;99.90;;;;;;7400394;19;20018;-78
2022/09/03 03:16:15;;;;;;;2.20;1.23;;;14.10;99.90;;;;;;7400535;19;20014;-78
2022/09/03 03:18:41;;;;;;;2.95;1.40;;;14.20;99.90;;;;;;7400927;19;20010;-77
2022/09/03 03:21:09;;;;;;;2.90;1.35;;;14.20;99.90;;;;;;7398517;19;20022;-78
2022/09/03 03:23:37;;;;;;;2.10;1.20;;;14.20;99.90;;;;;;7400391;19;20017;-77
2022/09/03 03:26:05;;;;;;;3.58;1.52;;;14.10;99.90;;;;;;7401986;19;20015;-78
2022/09/03 03:28:33;;;;;;;1.85;1.30;;;14.10;99.90;;;;;;7400831;19;20014;-78
2022/09/03 03:31:14;;;;;;;2.40;1.25;;;14.20;99.90;;;;;;7401166;19;20044;-78
2022/09/03 03:33:40;;;;;;;2.50;1.45;;;14.20;99.90;;;;;;7397812;19;20041;-78
2022/09/03 03:36:12;;;;;;;1.60;1.10;;;14.20;99.90;;;;;;7399879;19;20057;-78
2022/09/03 03:38:38;;;;;;;3.35;1.70;;;14.20;99.90;;;;;;7399958;19;20027;-78
2022/09/03 03:41:23;;;;;;;4.20;1.55;;;14.20;99.90;;;;;;7396271;19;20015;-78
2022/09/03 03:43:54;;;;;;;3.35;1.50;;;14.10;99.90;;;;;;7401354;19;20018;-77
2022/09/03 03:46:21;;;;;;;2.60;1.20;;;14.10;99.90;;;;;;7399760;19;20014;-78
2022/09/03 03:48:49;;;;;;;1.92;1.50;;;14.10;99.90;;;;;;7398108;19;20364;-78
2022/09/03 03:51:16;;;;;;;2.90;1.30;;;14.10;99.90;;;;;;7396452;19;20018;-78
2022/09/03 03:53:42;;;;;;;1.98;1.08;;;14.00;99.90;;;;;;7398255;19;20014;-78
2022/09/03 03:56:11;;;;;;;2.55;1.38;;;14.00;99.90;;;;;;7394422;19;20042;-78
2022/09/03 03:58:41;;;;;;;1.90;1.60;;;14.00;99.90;;;;;;7399584;19;20082;-78
2022/09/03 04:01:13;;;;;;;2.88;1.50;;;13.90;99.90;;;;;;7399320;19;20499;-78
2022/09/03 04:03:40;;;;;;;2.00;1.60;;;13.90;99.90;;;;;;7399459;19;20006;-78
2022/09/03 04:06:07;;;;;;;2.10;1.50;;;13.90;99.90;;;;;;7396601;19;20011;-78
2022/09/03 04:08:38;;;;;;;4.15;1.80;;;13.80;99.90;;;;;;7402234;19;20022;-78
2022/09/03 04:11:07;;;;;;;3.88;1.88;;;13.80;99.90;;;;;;7398569;19;20011;-78
2022/09/03 04:13:36;;;;;;;2.63;2.25;;;13.70;99.90;;;;;;7395763;19;20047;-78
2022/09/03 04:16:02;;;;;;;3.53;1.50;;;13.70;99.90;;;;;;7399615;19;20019;-78
2022/09/03 04:18:28;;;;;;;4.57;1.80;;;13.70;99.90;;;;;;7400227;19;20022;-78
2022/09/03 04:21:05;;;;;;;2.75;1.50;;;13.60;99.90;;;;;;7397271;19;20535;-78
2022/09/03 04:23:37;;;;;;;2.50;1.60;;;13.70;99.90;;;;;;7398563;19;20026;-78
2022/09/03 04:26:04;;;;;;;4.25;1.83;;;13.70;99.90;;;;;;7399218;19;20499;-78
2022/09/03 04:28:30;;;;;;;2.30;1.85;;;13.70;99.90;;;;;;7399533;19;20025;-78
2022/09/03 04:31:01;;;;;;;3.08;1.90;;;13.70;99.90;;;;;;7396294;19;20042;-78
2022/09/03 04:33:27;;;;;;;2.58;1.70;;;13.60;99.90;;;;;;7397011;19;20082;-78
2022/09/03 04:36:00;;;;;;;3.50;1.83;;;13.60;99.90;;;;;;7395667;19;20052;-78
2022/09/03 04:38:28;;;;;;;2.30;1.60;;;13.60;99.90;;;;;;7399722;19;20014;-78
2022/09/03 04:40:54;;;;;;;3.42;1.83;;;13.60;99.90;;;;;;7396315;19;20014;-78
2022/09/03 04:43:20;;;;;;;2.67;1.92;;;13.60;99.90;;;;;;7396753;19;20022;-78
2022/09/03 04:45:46;;;;;;;4.13;1.88;;;13.60;99.90;;;;;;7397200;19;20090;-78
2022/09/03 04:48:12;;;;;;;3.50;1.77;;;13.60;99.90;;;;;;7400208;19;20015;-78
2022/09/03 04:50:38;;;;;;;3.25;1.45;;;13.50;99.90;;;;;;7394409;19;20011;-78
2022/09/03 04:53:05;;;;;;;1.95;1.48;;;13.60;99.90;;;;;;7395121;19;20082;-78
2022/09/03 04:55:35;;;;;;;7.82;1.92;;;13.60;99.90;;;;;;7394356;19;20370;-78
2022/09/03 04:58:01;;;;;;;3.22;1.70;;;13.50;99.90;;;;;;7399340;19;20018;-79
2022/09/03 05:00:27;;;;;;;2.03;1.65;;;13.50;99.90;;;;;;7393163;19;21229;-79
2022/09/03 05:02:53;;;;;;;2.10;1.63;;;13.50;99.90;;;;;;7395375;19;20033;-78
2022/09/03 05:05:19;;;;;;;2.50;1.70;;;13.50;99.90;;;;;;7394928;19;20357;-78
2022/09/03 05:07:45;;;;;;;3.40;1.83;;;13.50;99.90;;;;;;7393679;19;20066;-79
2022/09/03 05:10:19;;;;;;;3.45;1.80;;;13.50;99.90;;;;;;7395578;19;20367;-78
2022/09/03 05:13:00;;;;;;;3.65;1.70;;;13.50;99.90;;;;;;7399599;19;20014;-78
2022/09/03 05:15:28;;;;;;;2.90;1.77;;;13.50;99.90;;;;;;7397328;19;20010;-78
2022/09/03 05:17:58;;;;;;;2.17;1.60;;;13.50;99.90;;;;;;7394384;19;20376;-78
2022/09/03 05:20:25;;;;;;;2.55;1.85;;;13.50;99.90;;;;;;7396525;19;20011;-78
2022/09/03 05:22:51;;;;;;;2.97;1.75;;;13.50;99.90;;;;;;7396208;19;20015;-78
2022/09/03 05:25:17;;;;;;;4.15;1.90;;;13.50;99.90;;;;;;7395670;19;20471;-78
2022/09/03 05:27:43;;;;;;;2.53;1.92;;;13.50;99.90;;;;;;7396709;19;20015;-78
2022/09/03 05:30:09;;;;;;;1.77;1.60;;;13.50;99.90;;;;;;7396645;19;20095;-79
2022/09/03 05:32:35;;;;;;;3.50;1.75;;;13.40;99.90;;;;;;7393139;19;20026;-79
2022/09/03 05:35:01;;;;;;;2.20;1.73;;;13.50;99.90;;;;;;7394817;19;20014;-79
2022/09/03 05:37:27;;;;;;;3.42;1.67;;;13.50;99.90;;;;;;7393313;19;20021;-79
2022/09/03 05:39:53;;;;;;;3.22;1.45;;;13.50;99.90;;;;;;7393118;19;20015;-79
2022/09/03 05:42:20;;;;;;;3.03;2.20;;;13.50;99.90;;;;;;7396102;19;20034;-79
2022/09/03 05:44:48;;;;;;;5.03;1.80;;;13.60;99.90;;;;;;7394997;19;20022;-79
2022/09/03 05:47:15;;;;;;;2.50;1.80;;;13.70;99.90;;;;;;7395815;19;20078;-79
2022/09/03 05:49:41;;;;;;;3.10;1.63;;;13.70;99.90;;;;;;7394603;19;20506;-79
2022/09/03 05:52:08;;;;;;;4.30;1.60;;;13.70;99.90;;;;;;7394058;19;20017;-78
2022/09/03 05:54:35;;;;;;;2.53;1.80;;;13.70;99.90;;;;;;7392269;19;20601;-78
2022/09/03 05:57:01;;;;;;;2.88;1.80;;;13.60;99.90;;;;;;7393203;19;20021;-78
2022/09/03 05:59:27;;;;;;;3.63;1.52;;;13.70;99.90;;;;;;7389009;19;20018;-77
2022/09/03 06:01:52;;;;;;;2.60;1.65;;;13.70;99.90;;;;;;7395739;19;20014;-77
2022/09/03 06:04:19;;;;;;;3.05;1.60;;;13.80;99.90;;;;;;7394463;19;20053;-77
2022/09/03 06:06:46;;;;;;;3.53;1.77;;;13.90;99.90;;;;;;7396785;19;20038;-77
2022/09/03 06:09:18;;;;;;;3.28;1.77;;;13.90;99.90;;;;;;7393527;19;20010;-77
2022/09/03 06:11:45;;;;;;;3.05;1.63;;;14.00;99.90;;;;;;7391711;19;20021;-77
2022/09/03 06:14:12;;;;;;;2.13;1.60;;;14.00;99.90;;;;;;7390398;19;20014;-77
2022/09/03 06:16:42;;;;;;;4.60;1.70;;;14.10;99.90;;;;;;7392965;19;20081;-77
2022/09/03 06:19:09;;;;;;;2.67;1.60;;;14.20;99.90;;;;;;7395921;19;20019;-77
2022/09/03 06:21:36;;;;;;;2.30;1.70;;;14.30;99.90;;;;;;7391642;19;20085;-77
2022/09/03 06:24:02;;;;;;;3.38;1.58;;;14.40;99.90;;;;;;7391075;19;20034;-77
2022/09/03 06:26:28;;;;;;;3.50;1.50;;;14.40;99.90;;;;;;7389446;19;20060;-77
2022/09/03 06:28:55;;;;;;;3.53;1.70;;;14.50;99.90;;;;;;7395252;19;20019;-77
2022/09/03 06:31:21;;;;;;;5.10;1.70;;;14.60;99.90;;;;;;7391079;19;20025;-80
2022/09/03 06:33:48;;;;;;;2.13;1.38;;;14.60;99.90;;;;;;7394268;19;20010;-79
2022/09/03 06:36:16;;;;;;;4.50;1.40;;;14.80;99.90;;;;;;7392477;19;20047;-78
2022/09/03 06:38:44;;;;;;;4.25;1.30;;;14.80;99.90;;;;;;7391823;19;20022;-77
2022/09/03 06:41:11;;;;;;;2.65;1.48;;;14.90;99.90;;;;;;7395065;19;20014;-78
2022/09/03 06:43:39;;;;;;;2.85;1.63;;;15.00;99.90;;;;;;7391826;19;20015;-77
2022/09/03 06:46:17;;;;;;;4.10;1.67;;;15.00;99.90;;;;;;7394129;19;20011;-77
2022/09/03 06:48:43;;;;;;;3.00;1.45;;;15.10;99.90;;;;;;7394501;19;20011;-78
2022/09/03 06:51:15;;;;;;;5.13;1.60;;;15.20;99.90;;;;;;7393318;19;20034;-78
2022/09/03 06:53:44;;;;;;;2.47;1.30;;;15.30;99.90;;;;;;7391115;19;20043;-78
2022/09/03 06:56:16;;;;;;;1.98;1.60;;;15.30;99.90;;;;;;7388901;19;20019;-77
2022/09/03 06:58:48;;;;;;;2.97;1.40;;;15.40;99.90;;;;;;7393495;19;20038;-76
2022/09/03 07:01:16;;;;;;;3.65;1.60;;;15.60;99.90;;;;;;7391177;19;20043;-76
2022/09/03 07:03:44;;;;;;;4.65;1.45;;;15.70;99.90;;;;;;7392403;19;20018;-76
2022/09/03 07:06:15;;;;;;;4.53;1.38;;;15.80;99.90;;;;;;7390189;19;20018;-77
2022/09/03 07:08:41;;;;;;;8.68;2.28;;;16.60;99.90;;;;;;7391495;19;20248;-77
2022/09/03 07:11:11;;;;;;;4.93;1.60;;;17.20;99.90;;;;;;7391920;19;20025;-84
2022/09/03 07:13:42;;;;;;;2.28;1.40;;;17.20;99.90;;;;;;7397857;19;20022;-75
2022/09/03 07:16:10;;;;;;;2.92;1.50;;;16.90;99.90;;;;;;7399176;19;20424;-75
2022/09/03 07:18:36;;;;;;;4.15;1.38;;;16.70;99.90;;;;;;7400775;19;20026;-75
2022/09/03 07:21:12;;;;;;;3.72;1.33;;;16.80;99.90;;;;;;7401124;19;20015;-75
2022/09/03 07:23:38;;;;;;;1.45;1.27;;;17.30;99.90;;;;;;7397596;19;20417;-75
2022/09/03 07:26:07;;;;;;;5.50;1.35;;;18.50;99.90;;;;;;7401255;19;20026;-75
2022/09/03 07:28:35;;;;;;;4.68;1.27;;;19.50;99.90;;;;;;7400084;19;20123;-75
2022/09/03 07:31:05;;;;;;;2.25;1.00;;;20.10;99.90;;;;;;7401112;19;20014;-76
2022/09/03 07:33:31;;;;;;;8.48;2.42;;;20.80;99.20;;;;;;7398727;19;20576;-75
2022/09/03 07:36:06;;;;;;;3.00;1.10;;;21.20;98.00;;;;;;7401538;19;20015;-76
2022/09/03 07:38:33;;;;;;;3.15;1.27;;;21.30;97.20;;;;;;7397196;19;20419;-77
2022/09/03 07:41:02;;;;;;;2.22;1.20;;;21.50;97.10;;;;;;7397201;19;20479;-76
2022/09/03 07:43:32;;;;;;;1.88;1.25;;;21.20;96.80;;;;;;7398381;19;20007;-76
2022/09/03 07:46:00;;;;;;;2.03;1.10;;;21.40;96.90;;;;;;7396284;19;20014;-76
2022/09/03 07:48:25;;;;;;;4.53;1.13;;;21.70;96.50;;;;;;7396481;19;20014;-75
2022/09/03 07:50:53;;;;;;;2.72;1.45;;;22.10;96.40;;;;;;7397140;19;20031;-76
2022/09/03 07:53:22;;;;;;;3.45;1.27;;;22.10;96.30;;;;;;7397484;19;20470;-76
2022/09/03 07:55:48;;;;;;;4.93;1.20;;;22.60;96.00;;;;;;7396716;19;20007;-76
2022/09/03 07:58:17;;;;;;;2.95;1.00;;;22.50;95.40;;;;;;7396201;19;20376;-76
2022/09/03 08:00:43;;;;;;;1.83;1.20;;;22.60;95.30;;;;;;7397816;19;20014;-76
2022/09/03 08:03:09;;;;;;;2.38;1.30;;;22.50;95.40;;;;;;7397728;19;20019;-76
2022/09/03 08:05:36;;;;;;;2.13;1.10;;;22.50;95.20;;;;;;7395045;19;20010;-76
2022/09/03 08:08:03;;;;;;;1.85;1.08;;;22.30;94.60;;;;;;7396410;19;20107;-75
2022/09/03 08:10:31;;;;;;;6.20;1.20;;;22.10;94.70;;;;;;7395956;19;20010;-76
2022/09/03 08:12:57;;;;;;;3.45;1.05;;;21.80;95.00;;;;;;7397543;19;20006;-75
2022/09/03 08:15:24;;;;;;;3.90;1.35;;;21.90;96.00;;;;;;7395846;19;20019;-76
2022/09/03 08:17:51;;;;;;;2.90;1.23;;;22.10;95.80;;;;;;7401118;19;20426;-75
2022/09/03 08:20:17;;;;;;;1.75;1.10;;;21.70;95.60;;;;;;7395873;19;20031;-76
2022/09/03 08:22:43;;;;;;;2.15;0.90;;;20.70;95.50;;;;;;7401066;19;20014;-75
2022/09/03 08:25:09;;;;;;;2.33;1.15;;;20.10;97.30;;;;;;7399386;19;20078;-77
2022/09/03 08:27:35;;;;;;;2.80;1.30;;;19.90;97.00;;;;;;7397376;19;20048;-76
2022/09/03 08:30:03;;;;;;;1.85;1.08;;;19.80;97.70;;;;;;7398932;19;20018;-76
2022/09/03 08:32:29;;;;;;;5.18;1.30;;;19.70;98.00;;;;;;7395597;19;20035;-76
2022/09/03 08:34:55;;;;;;;1.55;0.93;;;19.70;98.10;;;;;;7395097;19;20007;-76
2022/09/03 08:37:27;;;;;;;5.90;1.35;;;19.70;97.90;;;;;;7396843;19;20039;-76
2022/09/03 08:39:53;;;;;;;3.42;1.25;;;19.70;98.20;;;;;;7394862;19;20345;-76
2022/09/03 08:42:22;;;;;;;4.25;1.20;;;19.80;97.70;;;;;;7396096;19;20010;-76
2022/09/03 08:44:55;;;;;;;2.53;1.00;;;19.90;98.00;;;;;;7396076;19;20498;-76
2022/09/03 08:47:40;;;;;;;4.13;1.10;;;20.00;98.80;;;;;;7396073;19;20014;-76
2022/09/03 08:50:26;;;;;;;3.28;1.00;;;20.20;98.50;;;;;;7394486;19;20022;-76
2022/09/03 08:52:58;;;;;;;3.60;1.30;;;20.30;98.80;;;;;;7394763;19;20088;-76
2022/09/03 08:55:27;;;;;;;;;;;20.40;97.60;;;;;;7395720;19;20031;-77
2022/09/03 08:58:00;;;;;;;4.95;0.93;;;20.40;99.40;;;;;;7394598;19;20372;-76
2022/09/03 09:01:00;;;;;;;3.17;1.27;;;20.50;97.30;;;;;;7394321;19;20014;-76
2022/09/03 09:03:38;;;;;;;2.80;0.85;;;20.50;97.40;;;;;;7393190;19;20042;-76
2022/09/03 09:06:19;;;;;;;2.45;1.10;;;20.70;98.30;;;;;;7395008;19;20018;-76
2022/09/03 09:09:06;;;;;;;3.88;1.10;;;20.90;97.20;;;;;;7395320;19;20007;-76
2022/09/03 09:11:59;;;;;;;3.08;1.17;;;21.00;96.70;;;;;;7393722;19;20364;-76
2022/09/03 09:14:52;;;;;;;2.47;0.90;;;21.10;96.70;;;;;;7392772;19;20015;-76
2022/09/03 09:17:42;;;;;;;2.80;0.93;;;21.20;96.70;;;;;;7398801;19;20014;-76
2022/09/03 09:20:37;;;;;;;4.20;0.90;;;21.40;96.90;;;;;;7395692;19;20021;-76
2022/09/03 09:23:05;;;;;;;2.08;0.90;;;21.60;96.60;;;;;;7395230;19;20010;-76
2022/09/03 09:25:38;;;;;;;2.85;1.00;;;21.60;96.30;;;;;;7395401;19;20018;-76
2022/09/03 09:28:20;;;;;;;2.55;1.02;;;21.70;96.20;;;;;;7394709;19;20014;-76
2022/09/03 09:30:48;;;;;;;3.55;0.90;;;21.80;95.60;;;;;;7393279;19;20336;-76
2022/09/03 09:33:19;;;;;;;2.22;0.95;;;21.80;95.40;;;;;;7392685;19;20038;-76
2022/09/03 09:35:46;;;;;;;2.50;0.90;;;22.00;96.30;;;;;;7392762;19;20382;-76
2022/09/03 09:38:12;;;;;;;3.65;0.90;;;22.10;95.20;;;;;;7392493;19;20044;-76
2022/09/03 09:40:41;;;;;;;5.20;0.95;;;22.10;95.00;;;;;;7392598;19;20347;-76
2022/09/03 09:43:19;;;;;;;2.72;1.00;;;22.10;95.30;;;;;;7392578;19;20017;-77
2022/09/03 09:45:48;;;;;;;4.95;0.98;;;22.10;94.30;;;;;;7392767;19;20017;-76
2022/09/03 09:48:25;;;;;;;2.90;0.90;;;22.20;94.40;;;;;;7392181;19;20019;-77
2022/09/03 09:51:03;;;;;;;2.28;0.93;;;22.20;94.20;;;;;;7393905;19;20014;-76
2022/09/03 09:53:29;;;;;;;2.22;0.90;;;22.20;94.50;;;;;;7393513;19;20014;-77
2022/09/03 09:55:57;;;;;;;3.78;1.08;;;22.20;93.70;;;;;;7393011;19;20389;-76
2022/09/03 09:58:27;;;;;;;3.17;1.00;;;22.20;94.20;;;;;;7393950;19;20011;-76
2022/09/03 10:01:11;;;;;;;2.38;1.00;;;22.20;94.20;;;;;;7392322;19;20016;-76
2022/09/03 10:03:54;;;;;;;1.90;0.80;;;22.40;93.60;;;;;;7393563;19;20491;-76
2022/09/03 10:09:15;;;;;;;6.35;0.80;;;22.70;93.80;;;;;;7392423;19;20017;-76
2022/09/03 10:12:04;;;;;;;4.05;0.80;;;22.90;93.60;;;;;;7393879;19;20011;-76
2022/09/03 10:14:37;;;;;;;4.10;0.90;;;23.20;93.30;;;;;;7391035;19;20022;-77
2022/09/03 10:17:20;;;;;;;4.05;1.00;;;23.30;92.70;;;;;;7393403;19;20038;-76
2022/09/03 10:22:54;;;;;;;2.30;0.80;;;23.30;92.20;;;;;;7393616;19;20019;-76
2022/09/03 10:25:22;;;;;;;2.70;1.00;;;23.50;92.30;;;;;;7393341;19;20028;-76
2022/09/03 10:27:52;;;;;;;1.40;0.75;;;23.50;92.20;;;;;;7393422;19;20006;-77
2022/09/03 10:30:18;;;;;;;2.97;0.90;;;23.60;92.00;;;;;;7393678;19;20019;-77
2022/09/03 10:32:58;;;;;;;3.00;0.90;;;23.60;91.30;;;;;;7391460;19;20027;-75
2022/09/03 10:36:04;;;;;;;2.65;0.90;;;23.60;91.80;;;;;;7389320;19;20051;-77
2022/09/03 10:38:33;;;;;;;2.53;0.80;;;23.70;91.10;;;;;;7389861;19;20467;-77
2022/09/03 10:41:29;;;;;;;2.50;0.80;;;23.70;90.60;;;;;;7391372;19;20031;-77
2022/09/03 10:44:25;;;;;;;3.70;0.85;;;23.70;90.90;;;;;;7392675;19;20475;-77
2022/09/03 10:47:11;;;;;;;2.65;0.88;;;23.80;90.90;;;;;;7396300;19;20010;-77
2022/09/03 10:50:00;;;;;;;1.52;1.00;;;24.00;90.50;;;;;;7398730;19;20007;-77
2022/09/03 10:52:29;;;;;;;2.63;0.98;;;24.20;90.60;;;;;;7401185;19;20018;-77
2022/09/03 10:55:32;;;;;;;5.60;0.95;;;24.20;90.40;;;;;;7396454;19;20039;-76
2022/09/03 10:58:37;;;;;;;3.45;0.85;;;24.30;90.00;;;;;;7398618;19;20013;-76
2022/09/03 11:01:28;;;;;;;2.92;0.80;;;24.30;89.10;;;;;;7398724;19;20019;-77
2022/09/03 11:04:15;;;;;;;2.72;0.80;;;24.30;89.00;;;;;;7397929;19;20011;-77
2022/09/03 11:07:06;;;;;;;4.00;0.80;;;24.20;89.50;;;;;;7398480;19;20364;-77
2022/09/03 11:10:16;;;;;;;7.20;0.90;;;24.30;90.70;;;;;;7397851;19;20024;-77
2022/09/03 11:13:07;;;;;;;1.35;0.95;;;24.40;89.30;;;;;;7396206;19;20018;-77
2022/09/03 11:15:51;;;;;;;1.65;0.65;;;24.60;89.40;;;;;;7402053;19;20090;-77
2022/09/03 11:18:42;;;;;;;5.43;0.85;;;24.60;88.50;;;;;;7398303;19;20042;-76
2022/09/03 11:21:12;;;;;;;3.90;0.80;;;24.40;87.60;;;;;;7397518;19;20010;-77
2022/09/03 11:23:45;;;;;;;4.93;0.80;;;24.60;87.80;;;;;;7398884;19;20410;-77
2022/09/03 11:26:22;;;;;;;2.40;0.60;;;24.50;86.60;;;;;;7398577;19;20041;-77
2022/09/03 11:29:08;;;;;;;1.52;0.70;;;24.50;87.20;;;;;;7397300;19;20499;-77
2022/09/03 11:31:56;;;;;;;2.40;0.75;;;24.50;87.20;;;;;;7394540;19;20018;-76
2022/09/03 11:34:31;;;;;;;2.67;0.65;;;24.60;87.30;;;;;;7395844;19;20010;-77
2022/09/03 11:37:18;;;;;;;2.17;0.68;;;24.70;87.20;;;;;;7398015;19;20011;-77
2022/09/03 11:39:44;;;;;;;1.75;0.73;;;24.60;85.40;;;;;;7398315;19;20014;-77
2022/09/03 11:42:25;;;;;;;1.98;0.70;;;24.60;85.90;;;;;;7396549;19;20547;-77
2022/09/03 11:44:51;;;;;;;2.67;0.80;;;24.70;86.30;;;;;;7398040;19;20015;-77
2022/09/03 11:47:38;;;;;;;2.88;0.98;;;24.60;86.10;;;;;;7397814;19;20050;-77
2022/09/03 11:50:29;;;;;;;1.80;0.73;;;24.60;84.10;;;;;;7397748;19;20014;-78
2022/09/03 11:53:16;;;;;;;3.83;0.70;;;24.60;85.00;;;;;;7395701;19;20010;-77
2022/09/03 11:55:54;;;;;;;5.32;0.90;;;24.60;84.50;;;;;;7397935;19;20019;-77
2022/09/03 11:58:33;;;;;;;3.20;0.60;;;24.60;86.70;;;;;;7395844;19;20027;-78
2022/09/03 12:01:02;;;;;;;4.47;0.70;;;24.60;84.90;;;;;;7397871;19;20018;-77
2022/09/03 12:04:13;;;;;;;3.47;0.80;;;24.80;85.70;;;;;;7397273;19;20018;-77
2022/09/03 12:07:05;;;;;;;4.80;0.93;;;24.70;83.60;;;;;;7396367;19;20357;-77
2022/09/03 12:09:55;;;;;;;1.95;0.50;;;24.70;85.30;;;;;;7398031;19;20017;-77
2022/09/03 12:12:53;;;;;;;4.43;0.82;;;24.90;85.40;;;;;;7396723;19;20007;-77
2022/09/03 12:16:10;;;;;;;2.15;0.65;;;24.90;84.00;;;;;;7399221;19;20035;-77
2022/09/03 12:18:40;;;;;;;2.80;0.85;;;24.80;83.10;;;;;;7395735;19;20014;-77
2022/09/03 12:21:07;;;;;;;4.22;0.60;;;25.00;84.20;;;;;;7395483;19;20018;-77
2022/09/03 12:23:43;;;;;;;1.85;0.70;;;25.00;84.20;;;;;;7397306;19;20010;-77
2022/09/03 12:26:15;;;;;;;1.00;0.70;;;25.00;83.20;;;;;;7397217;19;20026;-77
2022/09/03 12:28:45;;;;;;;2.03;0.75;;;25.10;83.30;;;;;;7395620;19;20026;-77
2022/09/03 12:31:28;;;;;;;2.17;0.70;;;25.10;82.80;;;;;;7396676;19;20102;-77
2022/09/03 12:34:16;;;;;;;1.80;0.90;;;25.00;83.10;;;;;;7394730;19;20014;-77
2022/09/03 12:36:45;;;;;;;4.18;0.82;;;25.10;83.80;;;;;;7396931;19;20022;-78
2022/09/03 12:39:18;;;;;;;1.48;0.70;;;25.10;83.80;;;;;;7393242;19;20010;-77
2022/09/03 12:42:02;;;;;;;2.70;0.90;;;25.30;82.30;;;;;;7394805;19;20017;-77
2022/09/03 12:44:41;;;;;;;5.07;0.70;;;25.30;83.00;;;;;;7396716;19;20010;-77
2022/09/03 12:47:16;;;;;;;2.08;0.60;;;25.30;82.80;;;;;;7395883;19;20535;-77
2022/09/03 12:49:44;;;;;;;7.80;0.73;;;25.20;82.70;;;;;;7396155;19;20014;-77
2022/09/03 12:52:28;;;;;;;5.32;0.77;;;25.10;83.00;;;;;;7394169;19;20032;-77
2022/09/03 12:54:57;;;;;;;4.97;0.90;;;25.10;82.30;;;;;;7394496;19;20503;-77
2022/09/03 12:57:27;;;;;;;5.25;0.70;;;25.10;82.20;;;;;;7395900;19;20011;-77
2022/09/03 12:59:59;;;;;;;2.83;0.60;;;25.00;82.60;;;;;;7396311;19;20089;-77
2022/09/03 13:02:34;;;;;;;5.32;0.80;;;25.10;82.50;;;;;;7395939;19;20408;-77
2022/09/03 13:05:02;;;;;;;2.97;0.90;;;25.00;82.00;;;;;;7395479;19;20010;-77
2022/09/03 13:07:33;;;;;;;2.42;0.75;;;25.00;82.50;;;;;;7395694;19;20019;-77
2022/09/03 13:10:06;;;;;;;1.63;0.60;;;25.10;81.90;;;;;;7392907;19;20014;-77
2022/09/03 13:12:34;;;;;;;;;;;25.20;84.10;;;;;;7396258;19;20006;-77
2022/09/03 13:15:09;;;;;;;4.53;0.88;;;25.20;82.60;;;;;;7396909;19;19922;-77
2022/09/03 13:17:47;;;;;;;4.95;0.60;;;25.30;82.20;;;;;;7395133;19;20015;-77
2022/09/03 13:20:44;;;;;;;2.22;0.80;;;25.30;82.40;;;;;;7395521;19;20030;-77
2022/09/03 13:23:19;;;;;;;2.03;0.52;;;25.30;81.30;;;;;;7394995;19;20031;-77
2022/09/03 13:26:18;;;;;;;0.65;0.43;;;25.30;82.20;;;;;;7393560;19;20018;-77
2022/09/03 13:28:58;;;;;;;3.53;0.60;;;25.40;82.10;;;;;;7393765;19;20014;-77
2022/09/03 13:31:45;;;;;;;2.42;0.80;;;25.40;83.00;;;;;;7395315;19;20014;-77